createdAt,value
2022-08-11T00:02:01.582Z,21.10
2022-08-11T00:04:39.364Z,21.00
2022-08-11T00:07:08.564Z,21.00
2022-08-11T00:09:40.110Z,21.00
2022-08-11T00:12:15.634Z,20.90
2022-08-11T00:14:46.702Z,20.90
2022-08-11T00:17:17.216Z,20.80
2022-08-11T00:20:12.931Z,20.80
2022-08-11T00:22:40.181Z,20.70
2022-08-11T00:25:15.309Z,20.70
2022-08-11T00:27:44.188Z,20.60
2022-08-11T00:30:15.605Z,20.60
2022-08-11T00:32:56.198Z,20.50
2022-08-11T00:35:51.317Z,20.50
2022-08-11T00:38:19.305Z,20.50
2022-08-11T00:40:58.394Z,20.50
2022-08-11T00:43:51.683Z,20.40
2022-08-11T00:46:36.558Z,20.30
2022-08-11T00:49:17.882Z,20.30
2022-08-11T00:52:12.793Z,20.30
2022-08-11T00:55:34.853Z,20.30
2022-08-11T00:59:01.297Z,20.30
2022-08-11T01:01:48.385Z,20.30
2022-08-11T01:04:56.124Z,20.20
2022-08-11T01:08:29.065Z,20.20
2022-08-11T01:11:55.590Z,20.10
2022-08-11T01:15:12.174Z,20.00
2022-08-11T01:18:18.829Z,19.90
2022-08-11T01:21:42.521Z,19.90
2022-08-11T01:24:58.830Z,19.80
2022-08-11T01:28:17.763Z,19.80
2022-08-11T01:31:32.347Z,19.70
2022-08-11T01:34:50.925Z,19.60
2022-08-11T01:38:22.774Z,19.60
2022-08-11T01:41:48.017Z,19.50
2022-08-11T01:45:13.349Z,19.30
2022-08-11T01:47:54.337Z,19.30
2022-08-11T01:50:39.145Z,19.10
2022-08-11T01:53:19.485Z,19.00
2022-08-11T01:56:02.702Z,19.00
2022-08-11T01:58:44.190Z,19.00
2022-08-11T02:01:22.634Z,19.00
2022-08-11T02:03:59.407Z,18.70
2022-08-11T02:06:56.122Z,18.50
2022-08-11T02:09:49.265Z,18.40
2022-08-11T02:12:42.176Z,18.30
2022-08-11T02:15:26.442Z,18.20
2022-08-11T02:18:07.222Z,18.10
2022-08-11T02:20:57.607Z,18.00
2022-08-11T02:24:06.156Z,17.90
2022-08-11T02:26:37.729Z,17.80
2022-08-11T02:29:17.796Z,17.50
2022-08-11T02:32:29.926Z,17.40
2022-08-11T02:35:11.385Z,17.40
2022-08-11T02:37:52.328Z,17.30
2022-08-11T02:40:35.817Z,17.30
2022-08-11T02:43:15.354Z,17.30
2022-08-11T02:45:55.863Z,17.30
2022-08-11T02:48:58.844Z,17.30
2022-08-11T02:51:39.038Z,17.10
2022-08-11T02:54:16.358Z,17.00
2022-08-11T02:56:58.304Z,16.90
2022-08-11T02:59:52.302Z,16.90
2022-08-11T03:02:53.371Z,16.90
2022-08-11T03:05:50.297Z,16.80
2022-08-11T03:08:51.461Z,16.80
2022-08-11T03:11:51.077Z,16.80
2022-08-11T03:14:45.882Z,16.70
2022-08-11T03:17:29.635Z,16.70
2022-08-11T03:20:24.998Z,16.60
2022-08-11T03:23:25.571Z,16.70
2022-08-11T03:26:01.949Z,16.70
2022-08-11T03:28:36.258Z,16.70
2022-08-11T03:31:25.286Z,16.60
2022-08-11T03:34:06.788Z,16.60
2022-08-11T03:37:17.151Z,16.50
2022-08-11T03:40:00.942Z,16.50
2022-08-11T03:42:41.424Z,16.50
2022-08-11T03:45:23.319Z,16.50
2022-08-11T03:48:15.372Z,16.50
2022-08-11T03:50:57.192Z,16.40
2022-08-11T03:53:49.427Z,16.40
2022-08-11T03:57:19.659Z,16.30
2022-08-11T04:00:16.188Z,16.30
2022-08-11T04:03:37.142Z,16.40
2022-08-11T04:06:38.242Z,16.40
2022-08-11T04:10:08.938Z,16.30
2022-08-11T04:13:16.721Z,16.20
2022-08-11T04:16:16.967Z,16.30
2022-08-11T04:19:31.105Z,16.20
2022-08-11T04:22:44.734Z,16.00
2022-08-11T04:25:57.444Z,15.80
2022-08-11T04:29:02.578Z,15.70
2022-08-11T04:31:44.277Z,15.70
2022-08-11T04:34:42.558Z,15.70
2022-08-11T04:37:39.207Z,15.80
2022-08-11T04:41:08.867Z,15.80
2022-08-11T04:44:31.899Z,15.90
2022-08-11T04:47:59.740Z,16.00
2022-08-11T04:51:16.341Z,16.00
2022-08-11T04:54:17.900Z,16.10
2022-08-11T04:57:07.405Z,16.00
2022-08-11T05:00:23.081Z,16.00
2022-08-11T05:03:44.684Z,16.10
2022-08-11T05:06:46.672Z,16.20
2022-08-11T05:09:41.043Z,16.30
2022-08-11T05:12:30.985Z,16.30
2022-08-11T05:15:18.623Z,16.40
2022-08-11T05:18:16.867Z,16.60
2022-08-11T05:21:09.127Z,16.80
2022-08-11T05:24:06.410Z,17.30
2022-08-11T05:27:04.133Z,17.50
2022-08-11T05:30:01.273Z,17.90
2022-08-11T05:32:58.046Z,18.30
2022-08-11T05:36:02.338Z,18.70
2022-08-11T05:38:44.302Z,18.90
2022-08-11T05:41:33.203Z,19.00
2022-08-11T05:44:22.474Z,19.30
2022-08-11T05:47:09.493Z,19.20
2022-08-11T05:49:56.757Z,19.30
2022-08-11T05:52:49.196Z,19.30
2022-08-11T05:56:02.441Z,19.30
2022-08-11T05:58:42.965Z,19.40
2022-08-11T06:01:14.310Z,19.50
2022-08-11T06:04:04.445Z,19.50
2022-08-11T06:06:33.071Z,19.50
2022-08-11T06:09:02.839Z,19.70
2022-08-11T06:11:43.955Z,19.70
2022-08-11T06:14:16.490Z,19.80
2022-08-11T06:16:48.735Z,20.00
2022-08-11T06:19:17.969Z,20.00
2022-08-11T06:21:48.031Z,20.20
2022-08-11T06:24:17.577Z,20.30
2022-08-11T06:29:54.970Z,20.70
2022-08-11T06:32:28.571Z,20.80
2022-08-11T06:35:21.000Z,20.90
2022-08-11T06:38:09.512Z,21.10
2022-08-11T06:41:05.099Z,21.30
2022-08-11T06:43:55.741Z,21.50
2022-08-11T06:46:31.391Z,21.60
2022-08-11T06:49:03.434Z,21.80
2022-08-11T06:51:32.589Z,21.80
2022-08-11T06:54:05.521Z,22.00
2022-08-11T07:00:02.130Z,22.20
2022-08-11T07:02:35.101Z,22.40
2022-08-11T07:05:09.724Z,22.50
2022-08-11T07:08:44.538Z,22.70
2022-08-11T07:11:52.673Z,22.80
2022-08-11T07:14:43.695Z,23.00
2022-08-11T07:17:19.270Z,23.10
2022-08-11T07:20:12.677Z,23.20
2022-08-11T07:23:05.400Z,23.30
2022-08-11T07:25:55.163Z,23.40
2022-08-11T07:28:44.234Z,23.60
2022-08-11T07:31:15.829Z,23.70
2022-08-11T07:34:07.921Z,23.80
2022-08-11T07:36:44.045Z,23.90
2022-08-11T07:39:18.205Z,24.00
2022-08-11T07:41:48.977Z,24.20
2022-08-11T07:44:17.459Z,24.30
2022-08-11T07:47:06.562Z,24.40
2022-08-11T07:49:56.583Z,24.50
2022-08-11T07:52:32.435Z,24.60
2022-08-11T07:55:03.581Z,24.70
2022-08-11T07:58:13.920Z,24.90
2022-08-11T08:01:09.880Z,25.00
2022-08-11T08:04:07.557Z,25.10
2022-08-11T08:06:54.716Z,25.10
2022-08-11T08:09:42.497Z,25.20
2022-08-11T08:12:29.664Z,25.30
2022-08-11T08:15:16.359Z,25.40
2022-08-11T08:18:09.476Z,25.50
2022-08-11T08:20:50.735Z,25.50
2022-08-11T08:23:33.056Z,25.70
2022-08-11T08:26:26.736Z,25.80
2022-08-11T08:28:55.885Z,26.00
2022-08-11T08:31:23.517Z,26.10
2022-08-11T08:33:52.766Z,26.30
2022-08-11T08:36:25.566Z,26.40
2022-08-11T08:38:55.220Z,26.60
2022-08-11T08:41:29.792Z,26.60
2022-08-11T08:44:21.103Z,26.70
2022-08-11T08:46:51.153Z,26.90
2022-08-11T08:49:25.086Z,26.90
2022-08-11T08:52:01.868Z,26.90
2022-08-11T08:54:47.306Z,26.90
2022-08-11T08:57:20.025Z,27.00
2022-08-11T08:59:51.495Z,27.30
2022-08-11T09:02:33.803Z,27.30
2022-08-11T09:05:05.237Z,27.40
2022-08-11T09:07:39.410Z,27.50
2022-08-11T09:10:11.434Z,27.60
2022-08-11T09:12:43.578Z,27.80
2022-08-11T09:15:14.126Z,27.80
2022-08-11T09:17:47.739Z,27.90
2022-08-11T09:20:19.943Z,28.10
2022-08-11T09:24:06.484Z,28.20
2022-08-11T09:26:16.593Z,28.30
2022-08-11T09:28:48.973Z,28.60
2022-08-11T09:31:18.318Z,28.80
2022-08-11T09:33:55.947Z,28.80
2022-08-11T09:36:42.061Z,28.90
2022-08-11T09:39:31.157Z,28.90
2022-08-11T09:42:03.417Z,29.00
2022-08-11T09:44:48.709Z,29.20
2022-08-11T09:47:24.484Z,29.30
2022-08-11T09:49:59.843Z,29.30
2022-08-11T09:52:30.424Z,29.60
2022-08-11T09:54:59.444Z,29.90
2022-08-11T09:57:45.924Z,29.80
2022-08-11T10:00:17.499Z,29.90
2022-08-11T10:02:48.734Z,29.90
2022-08-11T10:05:38.014Z,29.90
2022-08-11T10:08:09.313Z,30.00
2022-08-11T10:10:39.830Z,30.20
2022-08-11T10:14:31.391Z,30.30
2022-08-11T10:16:15.728Z,30.50
2022-08-11T10:18:53.603Z,30.70
2022-08-11T10:21:36.963Z,30.80
2022-08-11T10:24:25.438Z,30.90
2022-08-11T10:27:00.354Z,30.90
2022-08-11T10:29:52.062Z,30.90
2022-08-11T10:32:49.337Z,31.10
2022-08-11T10:35:27.907Z,31.30
2022-08-11T10:38:07.306Z,31.50
2022-08-11T10:40:40.348Z,31.50
2022-08-11T10:43:13.745Z,31.70
2022-08-11T10:46:03.736Z,31.80
2022-08-11T10:48:38.849Z,31.90
2022-08-11T10:51:13.934Z,31.80
2022-08-11T10:54:03.255Z,32.20
2022-08-11T10:56:54.199Z,32.30
2022-08-11T10:59:24.314Z,32.40
2022-08-11T11:01:54.602Z,32.60
2022-08-11T11:04:26.042Z,32.70
2022-08-11T11:07:07.263Z,32.70
2022-08-11T11:09:44.050Z,32.90
2022-08-11T11:12:34.971Z,33.10
2022-08-11T11:15:21.985Z,33.20
2022-08-11T11:17:57.051Z,33.10
2022-08-11T11:20:37.221Z,33.20
2022-08-11T11:23:12.816Z,33.30
2022-08-11T11:26:31.252Z,33.40
2022-08-11T11:29:30.000Z,33.40
2022-08-11T11:32:19.825Z,33.30
2022-08-11T11:35:34.903Z,33.60
2022-08-11T11:38:06.170Z,33.90
2022-08-11T11:40:37.569Z,33.90
2022-08-11T11:43:07.189Z,33.90
2022-08-11T11:45:35.601Z,34.00
2022-08-11T11:48:05.029Z,33.90
2022-08-11T11:50:38.306Z,33.70
2022-08-11T11:53:11.182Z,33.90
2022-08-11T11:55:39.964Z,33.90
2022-08-11T11:58:26.039Z,34.00
2022-08-11T12:01:12.648Z,33.90
2022-08-11T12:03:42.116Z,34.00
2022-08-11T12:06:15.529Z,34.00
2022-08-11T12:08:45.437Z,34.20
2022-08-11T12:11:32.211Z,34.10
2022-08-11T12:14:04.754Z,34.00
2022-08-11T12:16:42.403Z,33.80
2022-08-11T12:19:13.677Z,33.80
2022-08-11T12:22:01.318Z,33.80
2022-08-11T12:24:47.696Z,33.50
2022-08-11T12:27:24.252Z,33.40
2022-08-11T12:29:59.442Z,33.10
2022-08-11T12:32:32.214Z,33.20
2022-08-11T12:35:01.491Z,33.20
2022-08-11T12:37:34.173Z,33.30
2022-08-11T12:40:43.475Z,33.30
2022-08-11T12:43:39.651Z,33.10
2022-08-11T12:46:15.497Z,33.10
2022-08-11T12:49:05.270Z,33.30
2022-08-11T12:52:13.399Z,33.30
2022-08-11T12:54:57.372Z,33.30
2022-08-11T12:57:50.180Z,33.30
2022-08-11T13:00:37.768Z,33.00
2022-08-11T13:03:27.609Z,33.00
2022-08-11T13:05:59.927Z,33.00
2022-08-11T13:08:30.745Z,32.90
2022-08-11T13:11:20.191Z,33.00
2022-08-11T13:13:57.209Z,33.00
2022-08-11T13:16:30.517Z,33.10
2022-08-11T13:19:01.348Z,33.10
2022-08-11T13:21:30.636Z,33.30
2022-08-11T13:24:02.755Z,33.30
2022-08-11T13:26:47.829Z,33.30
2022-08-11T13:29:24.492Z,33.30
2022-08-11T13:31:54.802Z,33.30
2022-08-11T13:34:24.533Z,33.30
2022-08-11T13:36:57.229Z,33.30
2022-08-11T13:39:28.390Z,33.30
2022-08-11T13:42:00.433Z,33.40
2022-08-11T13:44:32.126Z,33.50
2022-08-11T13:47:04.117Z,33.50
2022-08-11T13:49:33.638Z,33.50
2022-08-11T13:52:02.683Z,33.40
2022-08-11T13:54:33.709Z,33.40
2022-08-11T13:57:08.121Z,33.40
2022-08-11T13:59:49.978Z,33.40
2022-08-11T14:02:30.278Z,33.30
2022-08-11T14:05:04.890Z,33.30
2022-08-11T14:07:40.411Z,33.30
2022-08-11T14:10:11.298Z,33.30
2022-08-11T14:13:01.883Z,33.20
2022-08-11T14:15:35.422Z,33.10
2022-08-11T14:18:07.645Z,33.10
2022-08-11T14:20:59.786Z,33.00
2022-08-11T14:23:30.876Z,33.00
2022-08-11T14:26:13.646Z,32.90
2022-08-11T14:28:45.340Z,32.90
2022-08-11T14:31:16.056Z,32.80
2022-08-11T14:34:00.481Z,32.70
2022-08-11T14:36:34.174Z,32.60
2022-08-11T14:39:07.446Z,32.60
2022-08-11T14:42:11.801Z,32.60
2022-08-11T14:45:03.273Z,32.70
2022-08-11T14:47:35.052Z,32.70
2022-08-11T14:50:09.969Z,32.80
2022-08-11T14:52:48.865Z,32.70
2022-08-11T14:55:35.647Z,32.60
2022-08-11T14:58:04.737Z,32.60
2022-08-11T15:00:36.045Z,32.40
2022-08-11T15:03:12.111Z,32.40
2022-08-11T15:05:56.352Z,32.50
2022-08-11T15:08:46.601Z,32.50
2022-08-11T15:11:35.247Z,32.50
2022-08-11T15:14:07.502Z,32.40
2022-08-11T15:16:56.788Z,32.30
2022-08-11T15:19:37.528Z,32.30
2022-08-11T15:22:28.836Z,32.20
2022-08-11T15:24:59.535Z,32.10
2022-08-11T15:27:49.474Z,32.20
2022-08-11T15:30:36.139Z,32.20
2022-08-11T15:33:30.453Z,31.90
2022-08-11T15:36:16.573Z,31.90
2022-08-11T15:38:57.118Z,31.90
2022-08-11T15:41:54.310Z,31.80
2022-08-11T15:45:03.621Z,31.70
2022-08-11T15:47:41.622Z,31.70
2022-08-11T15:50:16.861Z,31.60
2022-08-11T15:52:54.418Z,31.60
2022-08-11T15:55:24.646Z,31.60
2022-08-11T15:58:12.769Z,31.60
2022-08-11T16:00:59.005Z,31.40
2022-08-11T16:04:07.618Z,31.30
2022-08-11T16:06:49.311Z,31.30
2022-08-11T16:09:25.106Z,31.30
2022-08-11T16:11:59.998Z,31.30
2022-08-11T16:14:46.587Z,31.30
2022-08-11T16:17:17.530Z,31.20
2022-08-11T16:19:48.068Z,31.10
2022-08-11T16:22:34.270Z,31.10
2022-08-11T16:27:01.359Z,31.00
2022-08-11T16:27:57.227Z,30.90
2022-08-11T16:30:26.276Z,30.90
2022-08-11T16:32:55.896Z,30.90
2022-08-11T16:35:44.068Z,30.90
2022-08-11T16:38:35.198Z,30.80
2022-08-11T16:41:11.407Z,30.80
2022-08-11T16:44:02.523Z,30.60
2022-08-11T16:46:49.669Z,30.60
2022-08-11T16:49:23.319Z,30.60
2022-08-11T16:51:51.927Z,30.50
2022-08-11T16:54:22.162Z,30.50
2022-08-11T16:56:56.105Z,30.40
2022-08-11T16:59:31.146Z,30.40
2022-08-11T17:02:04.357Z,30.30
2022-08-11T17:05:09.458Z,30.30
2022-08-11T17:08:01.306Z,30.30
2022-08-11T17:11:00.162Z,30.20
2022-08-11T17:13:39.699Z,30.20
2022-08-11T17:16:13.130Z,30.20
2022-08-11T17:18:55.910Z,30.10
2022-08-11T17:21:29.918Z,30.00
2022-08-11T17:24:06.402Z,30.00
2022-08-11T17:26:55.784Z,29.90
2022-08-11T17:29:28.827Z,29.80
2022-08-11T17:32:20.913Z,29.80
2022-08-11T17:35:08.837Z,29.70
2022-08-11T17:37:40.079Z,29.70
2022-08-11T17:40:13.355Z,29.60
2022-08-11T17:43:03.692Z,29.60
2022-08-11T17:45:50.357Z,29.50
2022-08-11T17:48:28.596Z,29.50
2022-08-11T17:51:00.293Z,29.40
2022-08-11T17:54:10.119Z,29.30
2022-08-11T17:56:55.886Z,29.30
2022-08-11T17:59:43.875Z,29.20
2022-08-11T18:02:37.312Z,29.00
2022-08-11T18:05:10.821Z,28.90
2022-08-11T18:08:00.446Z,28.90
2022-08-11T18:10:49.765Z,28.90
2022-08-11T18:13:38.677Z,28.80
2022-08-11T18:16:26.824Z,28.80
2022-08-11T18:19:13.464Z,28.70
2022-08-11T18:22:15.431Z,28.60
2022-08-11T18:25:09.158Z,28.60
2022-08-11T18:27:57.278Z,28.40
2022-08-11T18:30:44.243Z,28.40
2022-08-11T18:33:56.869Z,28.30
2022-08-11T18:36:42.859Z,28.20
2022-08-11T18:39:31.627Z,28.10
2022-08-11T18:42:29.260Z,28.00
2022-08-11T18:45:19.020Z,28.00
2022-08-11T18:48:11.495Z,27.80
2022-08-11T18:51:29.959Z,27.80
2022-08-11T18:54:12.262Z,27.70
2022-08-11T18:56:58.191Z,27.60
2022-08-11T18:59:46.339Z,27.50
2022-08-11T19:02:33.826Z,27.40
2022-08-11T19:06:32.060Z,27.30
2022-08-11T19:08:49.299Z,27.10
2022-08-11T19:11:42.425Z,27.00
2022-08-11T19:14:31.165Z,26.90
2022-08-11T19:17:43.911Z,26.80
2022-08-11T19:20:29.442Z,26.70
2022-08-11T19:23:16.841Z,26.60
2022-08-11T19:26:05.496Z,26.40
2022-08-11T19:28:54.092Z,26.30
2022-08-11T19:31:44.310Z,26.20
2022-08-11T19:34:32.967Z,26.10
2022-08-11T19:37:23.703Z,26.10
2022-08-11T19:40:12.152Z,25.90
2022-08-11T19:43:00.902Z,25.80
2022-08-11T19:45:52.737Z,25.70
2022-08-11T19:48:40.163Z,25.70
2022-08-11T19:51:28.272Z,25.60
2022-08-11T19:54:15.344Z,25.50
2022-08-11T19:57:03.176Z,25.40
2022-08-11T19:59:52.418Z,25.30
2022-08-11T20:02:38.464Z,25.30
2022-08-11T20:05:26.317Z,25.20
2022-08-11T20:08:15.178Z,25.10
2022-08-11T20:11:03.441Z,25.00
2022-08-11T20:13:49.960Z,24.90
2022-08-11T20:16:39.366Z,24.80
2022-08-11T20:19:55.600Z,24.70
2022-08-11T20:22:35.013Z,24.60
2022-08-11T20:25:24.685Z,24.40
2022-08-11T20:28:12.028Z,24.10
2022-08-11T20:30:59.443Z,23.90
2022-08-11T20:33:46.367Z,23.80
2022-08-11T20:36:32.804Z,23.60
2022-08-11T20:39:19.683Z,23.30
2022-08-11T20:42:07.450Z,23.20
2022-08-11T20:44:56.348Z,23.00
2022-08-11T20:47:58.961Z,22.80
2022-08-11T20:50:49.097Z,22.60
2022-08-11T20:53:39.188Z,22.40
2022-08-11T20:56:28.956Z,22.40
2022-08-11T20:59:18.814Z,22.30
2022-08-11T21:02:10.042Z,22.30
2022-08-11T21:04:57.905Z,22.30
2022-08-11T21:07:56.937Z,22.30
2022-08-11T21:10:51.549Z,22.20
2022-08-11T21:13:41.113Z,22.00
2022-08-11T21:16:32.141Z,22.00
2022-08-11T21:20:00.361Z,21.80
2022-08-11T21:22:43.341Z,21.80
2022-08-11T21:25:48.429Z,21.70
2022-08-11T21:28:37.434Z,21.50
2022-08-11T21:31:24.456Z,21.50
2022-08-11T21:34:11.444Z,21.50
2022-08-11T21:36:58.950Z,21.50
2022-08-11T21:39:46.424Z,21.40
2022-08-11T21:42:34.545Z,21.40
2022-08-11T21:45:21.429Z,21.50
2022-08-11T21:48:07.743Z,21.30
2022-08-11T21:50:53.448Z,21.50
2022-08-11T21:53:40.016Z,21.60
2022-08-11T21:56:27.351Z,21.70
2022-08-11T21:59:16.688Z,21.80
2022-08-11T22:02:03.536Z,21.80
2022-08-11T22:04:50.814Z,21.80
2022-08-11T22:07:40.740Z,21.80
2022-08-11T22:10:40.461Z,21.80
2022-08-11T22:13:30.814Z,21.90
2022-08-11T22:16:18.628Z,21.90
2022-08-11T22:19:06.185Z,22.00
2022-08-11T22:22:00.997Z,22.00
2022-08-11T22:24:51.869Z,22.00
2022-08-11T22:27:37.684Z,22.10
2022-08-11T22:30:26.325Z,22.10
2022-08-11T22:33:16.867Z,22.20
2022-08-11T22:36:04.851Z,22.10
2022-08-11T22:38:53.022Z,22.20
2022-08-11T22:41:40.939Z,22.10
2022-08-11T22:44:26.891Z,22.10
2022-08-11T22:47:18.345Z,22.10
2022-08-11T22:50:10.945Z,22.00
2022-08-11T22:52:57.007Z,22.00
2022-08-11T22:55:43.469Z,22.00
2022-08-11T22:58:30.066Z,21.90
2022-08-11T23:01:17.133Z,21.90
2022-08-11T23:04:04.921Z,21.90
2022-08-11T23:06:53.828Z,21.90
2022-08-11T23:09:42.080Z,21.80
2022-08-11T23:12:28.434Z,21.80
2022-08-11T23:15:14.739Z,21.80
2022-08-11T23:18:00.941Z,21.80
2022-08-11T23:20:47.430Z,21.80
2022-08-11T23:23:36.594Z,21.80
2022-08-11T23:26:22.676Z,21.70
2022-08-11T23:29:08.666Z,21.70
2022-08-11T23:31:56.142Z,21.60
2022-08-11T23:35:04.190Z,21.60
2022-08-11T23:37:52.725Z,21.50
2022-08-11T23:40:39.985Z,21.30
2022-08-11T23:43:26.541Z,21.00
2022-08-11T23:46:12.117Z,20.90
2022-08-11T23:48:58.958Z,20.80
2022-08-11T23:51:46.915Z,20.70
2022-08-11T23:54:37.303Z,20.70
2022-08-11T23:57:25.187Z,20.60
